Time;durP1;ratioP1;P1;durP2;ratioP2;P2;SDS_P1;SDS_P2;PMS_P1;PMS_P2;Temp;Humidity;BMP_temperature;BMP_pressure;BME280_temperature;BME280_humidity;BME280_pressure;Samples;Min_cycle;Max_cycle;Signal;HPM_P1;HPM_P2
2021/06/09 00:00:04;;;;;;;19.53;9.97;;;;;;;;;;4996275;28;20466;-57
2021/06/09 00:02:31;;;;;;;12.50;7.90;;;;;;;;;;4996264;28;20596;-57
2021/06/09 00:04:59;;;;;;;9.03;6.67;;;;;;;;;;4996236;28;20461;-57
2021/06/09 00:07:26;;;;;;;10.07;5.40;;;;;;;;;;4994913;28;20489;-57
2021/06/09 00:09:55;;;;;;;6.00;4.67;;;;;;;;;;4996466;28;20461;-57
2021/06/09 00:12:22;;;;;;;7.33;5.47;;;;;;;;;;4995934;28;20531;-57
2021/06/09 00:14:49;;;;;;;7.40;4.93;;;;;;;;;;4996037;28;20093;-57
2021/06/09 00:17:16;;;;;;;8.27;5.53;;;;;;;;;;4995105;28;20030;-57
2021/06/09 00:19:43;;;;;;;16.50;7.00;;;;;;;;;;4996120;28;20026;-57
2021/06/09 00:22:10;;;;;;;6.77;4.40;;;;;;;;;;4995997;28;20022;-57
2021/06/09 00:24:39;;;;;;;8.13;4.87;;;;;;;;;;4995700;28;20477;-57
2021/06/09 00:27:07;;;;;;;5.73;4.37;;;;;;;;;;4993532;28;20536;-57
2021/06/09 00:29:34;;;;;;;6.23;4.77;;;;;;;;;;4995643;28;20477;-57
2021/06/09 00:32:02;;;;;;;5.43;4.27;;;;;;;;;;4995595;28;20504;-57
2021/06/09 00:34:29;;;;;;;35.90;11.40;;;;;;;;;;4995175;28;20481;-57
2021/06/09 00:36:57;;;;;;;8.23;5.33;;;;;;;;;;4995100;28;20046;-57
2021/06/09 00:39:25;;;;;;;5.53;4.10;;;;;;;;;;4994615;28;20030;-57
2021/06/09 00:41:52;;;;;;;5.67;4.23;;;;;;;;;;4995586;28;20109;-57
2021/06/09 00:44:19;;;;;;;9.20;4.47;;;;;;;;;;4995447;28;20022;-57
2021/06/09 00:46:47;;;;;;;5.63;3.70;;;;;;;;;;4995688;28;20462;-57
2021/06/09 00:49:15;;;;;;;9.70;4.17;;;;;;;;;;4995342;28;20485;-57
2021/06/09 00:51:42;;;;;;;8.50;4.20;;;;;;;;;;4996673;28;20174;-57
2021/06/09 00:54:09;;;;;;;10.57;3.60;;;;;;;;;;4995544;28;20038;-57
2021/06/09 00:56:38;;;;;;;6.90;3.70;;;;;;;;;;4995206;28;20466;-57
2021/06/09 00:59:06;;;;;;;5.20;3.80;;;;;;;;;;4978218;28;20492;-58
2021/06/09 01:01:33;;;;;;;5.53;3.77;;;;;;;;;;4994268;28;20534;-58
2021/06/09 01:04:02;;;;;;;7.33;3.83;;;;;;;;;;4995265;28;20041;-57
2021/06/09 01:06:29;;;;;;;5.07;3.47;;;;;;;;;;4995030;28;20489;-58
2021/06/09 01:08:57;;;;;;;4.90;3.13;;;;;;;;;;4995305;28;20473;-58
2021/06/09 01:11:25;;;;;;;6.03;3.30;;;;;;;;;;4994863;28;20512;-58
2021/06/09 01:13:53;;;;;;;7.07;3.90;;;;;;;;;;4994961;28;20022;-57
2021/06/09 01:16:20;;;;;;;8.07;4.67;;;;;;;;;;4994900;28;20462;-57
2021/06/09 01:18:48;;;;;;;10.07;5.67;;;;;;;;;;4993824;28;20520;-58
2021/06/09 01:21:15;;;;;;;7.07;4.60;;;;;;;;;;4994058;28;20498;-57
2021/06/09 01:23:42;;;;;;;15.57;5.00;;;;;;;;;;4995050;28;20030;-57
2021/06/09 01:26:10;;;;;;;10.43;5.23;;;;;;;;;;4994247;28;20477;-57
2021/06/09 01:28:38;;;;;;;10.20;6.30;;;;;;;;;;4993776;28;20521;-57
2021/06/09 01:31:05;;;;;;;12.90;7.17;;;;;;;;;;4993697;28;20042;-57
2021/06/09 01:33:32;;;;;;;12.40;7.87;;;;;;;;;;4994725;28;20042;-57
2021/06/09 01:36:00;;;;;;;12.50;5.77;;;;;;;;;;4993684;28;20541;-57
2021/06/09 01:38:27;;;;;;;9.73;5.60;;;;;;;;;;4993991;28;20035;-57
2021/06/09 01:40:54;;;;;;;16.07;6.20;;;;;;;;;;4994277;28;20174;-57
2021/06/09 01:43:22;;;;;;;12.37;6.07;;;;;;;;;;4994443;28;20061;-57
2021/06/09 01:45:50;;;;;;;13.10;8.53;;;;;;;;;;4994232;28;20477;-57
2021/06/09 01:48:18;;;;;;;33.43;16.60;;;;;;;;;;4993918;28;20053;-57
2021/06/09 01:50:45;;;;;;;37.30;22.80;;;;;;;;;;4994440;28;20034;-57
2021/06/09 01:53:12;;;;;;;23.53;15.50;;;;;;;;;;4994737;28;20548;-57
2021/06/09 01:55:40;;;;;;;16.23;8.37;;;;;;;;;;4994040;28;20493;-57
2021/06/09 01:58:11;;;;;;;12.33;7.00;;;;;;;;;;4992978;28;20501;-58
2021/06/09 02:00:43;;;;;;;8.07;6.00;;;;;;;;;;4994333;28;20482;-57
2021/06/09 02:03:13;;;;;;;12.23;5.40;;;;;;;;;;4992909;28;20477;-58
2021/06/09 02:05:40;;;;;;;7.30;5.37;;;;;;;;;;4993225;28;20027;-57
2021/06/09 02:08:15;;;;;;;8.60;4.70;;;;;;;;;;4993809;28;20498;-56
2021/06/09 02:11:02;;;;;;;11.88;5.00;;;;;;;;;;4993724;28;20026;-57
2021/06/09 02:13:35;;;;;;;9.93;5.00;;;;;;;;;;4993565;28;20042;-57
2021/06/09 02:16:16;;;;;;;11.47;4.63;;;;;;;;;;4993975;28;20492;-57
2021/06/09 02:18:51;;;;;;;7.47;4.47;;;;;;;;;;4984193;28;20489;-58
2021/06/09 02:21:27;;;;;;;9.15;4.00;;;;;;;;;;4993879;28;20033;-57
2021/06/09 02:24:09;;;;;;;6.37;4.33;;;;;;;;;;4993598;28;20611;-58
2021/06/09 02:26:46;;;;;;;12.33;4.60;;;;;;;;;;4974603;28;20509;-58
2021/06/09 02:29:21;;;;;;;10.43;4.67;;;;;;;;;;4992640;28;20492;-58
2021/06/09 02:31:54;;;;;;;7.80;4.65;;;;;;;;;;4993296;28;20481;-60
2021/06/09 02:34:22;;;;;;;8.27;4.53;;;;;;;;;;4993341;28;20536;-60
2021/06/09 02:36:57;;;;;;;8.43;4.80;;;;;;;;;;4993483;28;20500;-59
2021/06/09 02:39:25;;;;;;;8.20;4.53;;;;;;;;;;4993350;28;20540;-59
2021/06/09 02:41:53;;;;;;;27.10;12.83;;;;;;;;;;4992564;28;20496;-59
2021/06/09 02:44:20;;;;;;;35.67;14.73;;;;;;;;;;4991719;28;20553;-58
2021/06/09 02:46:53;;;;;;;18.07;8.30;;;;;;;;;;4993473;28;20470;-59
2021/06/09 02:49:24;;;;;;;12.80;6.10;;;;;;;;;;4993434;28;20478;-59
2021/06/09 02:52:08;;;;;;;11.87;5.97;;;;;;;;;;4994368;28;20065;-59
2021/06/09 02:54:45;;;;;;;9.68;5.45;;;;;;;;;;4976258;28;20519;-58
2021/06/09 02:57:30;;;;;;;9.83;5.37;;;;;;;;;;4993445;28;20029;-57
2021/06/09 02:59:57;;;;;;;10.07;6.18;;;;;;;;;;4993271;28;20524;-58
2021/06/09 03:02:42;;;;;;;9.80;4.57;;;;;;;;;;4994798;28;20473;-58
2021/06/09 03:05:16;;;;;;;7.53;4.87;;;;;;;;;;4997287;28;20536;-58
2021/06/09 03:07:52;;;;;;;13.77;5.30;;;;;;;;;;4997272;28;20018;-57
2021/06/09 03:10:26;;;;;;;8.03;5.00;;;;;;;;;;4996768;28;20519;-57
2021/06/09 03:13:05;;;;;;;11.83;5.37;;;;;;;;;;4997029;28;20545;-57
2021/06/09 03:15:31;;;;;;;;;;;;;;;;;;4997540;28;20473;-58
2021/06/09 03:18:04;;;;;;;8.17;5.03;;;;;;;;;;4996846;28;20356;-57
2021/06/09 03:20:50;;;;;;;6.00;4.67;;;;;;;;;;4996028;28;20515;-57
2021/06/09 03:23:34;;;;;;;5.50;4.43;;;;;;;;;;4996937;28;20033;-57
2021/06/09 03:26:01;;;;;;;7.85;5.32;;;;;;;;;;4996316;28;20531;-57
2021/06/09 03:28:37;;;;;;;5.43;4.27;;;;;;;;;;4996616;28;20497;-57
2021/06/09 03:31:06;;;;;;;10.10;5.60;;;;;;;;;;4996786;28;20564;-58
2021/06/09 03:33:45;;;;;;;14.27;5.97;;;;;;;;;;4996179;28;20515;-57
2021/06/09 03:36:20;;;;;;;8.10;5.40;;;;;;;;;;4996669;28;20485;-57
2021/06/09 03:38:49;;;;;;;7.50;4.72;;;;;;;;;;4996508;28;20482;-57
2021/06/09 03:41:17;;;;;;;8.33;4.83;;;;;;;;;;4996579;28;20081;-57
2021/06/09 03:43:52;;;;;;;9.13;5.60;;;;;;;;;;4996609;28;20481;-57
2021/06/09 03:46:31;;;;;;;7.63;5.05;;;;;;;;;;4996621;28;20473;-57
2021/06/09 03:49:01;;;;;;;7.07;5.03;;;;;;;;;;4996257;28;20532;-57
2021/06/09 03:51:31;;;;;;;7.53;4.90;;;;;;;;;;4996429;28;20534;-58
2021/06/09 03:53:59;;;;;;;7.73;5.53;;;;;;;;;;4998065;28;20568;-58
2021/06/09 03:56:28;;;;;;;8.23;5.63;;;;;;;;;;4996587;28;20475;-58
2021/06/09 03:58:56;;;;;;;11.63;5.40;;;;;;;;;;4995775;28;20495;-58
2021/06/09 04:01:24;;;;;;;6.90;5.30;;;;;;;;;;4996143;28;20469;-58
2021/06/09 04:03:52;;;;;;;7.83;4.77;;;;;;;;;;4996155;28;20121;-57
2021/06/09 04:06:20;;;;;;;6.97;5.27;;;;;;;;;;4996279;28;20022;-58
2021/06/09 04:08:49;;;;;;;9.03;6.00;;;;;;;;;;4996407;28;20484;-58
2021/06/09 04:11:18;;;;;;;7.13;5.30;;;;;;;;;;4995913;28;20081;-58
2021/06/09 04:13:46;;;;;;;8.00;5.70;;;;;;;;;;4994736;28;20034;-58
2021/06/09 04:16:15;;;;;;;6.80;5.00;;;;;;;;;;4995848;28;20485;-58
2021/06/09 04:18:45;;;;;;;8.93;4.80;;;;;;;;;;4978513;28;20481;-58
2021/06/09 04:21:13;;;;;;;7.63;5.50;;;;;;;;;;4995656;28;20512;-58
2021/06/09 04:23:40;;;;;;;7.93;5.23;;;;;;;;;;4994413;28;20496;-58
2021/06/09 04:26:10;;;;;;;6.47;5.33;;;;;;;;;;4995642;28;20473;-58
2021/06/09 04:28:37;;;;;;;13.73;6.10;;;;;;;;;;4995696;28;20564;-58
2021/06/09 04:31:05;;;;;;;12.93;6.33;;;;;;;;;;4995841;28;20493;-58
2021/06/09 04:33:32;;;;;;;7.93;5.60;;;;;;;;;;4995627;28;20532;-58
2021/06/09 04:35:59;;;;;;;7.77;4.80;;;;;;;;;;4995847;28;20081;-58
2021/06/09 04:38:26;;;;;;;7.97;5.17;;;;;;;;;;4995502;28;20541;-58
2021/06/09 04:40:55;;;;;;;8.43;5.13;;;;;;;;;;4995683;28;20537;-58
2021/06/09 04:43:23;;;;;;;6.50;5.10;;;;;;;;;;4995822;28;20026;-58
2021/06/09 04:45:50;;;;;;;8.53;5.53;;;;;;;;;;4995072;28;20481;-58
2021/06/09 04:48:19;;;;;;;8.77;5.67;;;;;;;;;;4995352;28;20033;-58
2021/06/09 04:50:48;;;;;;;7.73;5.17;;;;;;;;;;4995443;28;20530;-58
2021/06/09 04:53:16;;;;;;;7.37;5.13;;;;;;;;;;4995990;28;20494;-58
2021/06/09 04:55:44;;;;;;;11.87;5.57;;;;;;;;;;4978120;28;20485;-58
2021/06/09 04:58:12;;;;;;;7.97;5.67;;;;;;;;;;4995164;28;20508;-58
2021/06/09 05:00:43;;;;;;;9.70;5.80;;;;;;;;;;4995271;28;20485;-58
2021/06/09 05:03:11;;;;;;;8.47;5.47;;;;;;;;;;4995261;28;20022;-58
2021/06/09 05:05:40;;;;;;;7.53;5.20;;;;;;;;;;4995158;28;20508;-58
2021/06/09 05:08:07;;;;;;;9.33;5.43;;;;;;;;;;4994174;28;20500;-58
2021/06/09 05:10:35;;;;;;;6.63;5.00;;;;;;;;;;4994316;28;20552;-58
2021/06/09 05:13:05;;;;;;;6.80;5.27;;;;;;;;;;4994774;28;20496;-58
2021/06/09 05:15:35;;;;;;;10.50;5.60;;;;;;;;;;4994911;28;20504;-58
2021/06/09 05:18:03;;;;;;;7.87;5.43;;;;;;;;;;4994866;28;20491;-58
2021/06/09 05:20:33;;;;;;;7.30;5.53;;;;;;;;;;4995099;28;20512;-58
2021/06/09 05:23:18;;;;;;;8.07;5.07;;;;;;;;;;4995093;28;20081;-58
2021/06/09 05:25:45;;;;;;;;;;;;;;;;;;4994759;28;20499;-58
2021/06/09 05:28:13;;;;;;;6.70;4.27;;;;;;;;;;4994726;28;20417;-58
2021/06/09 05:30:41;;;;;;;8.53;5.40;;;;;;;;;;4994478;28;20485;-58
2021/06/09 05:33:09;;;;;;;7.10;4.93;;;;;;;;;;4994506;28;20482;-58
2021/06/09 05:35:36;;;;;;;7.20;5.37;;;;;;;;;;4994877;28;20022;-58
2021/06/09 05:38:05;;;;;;;6.67;4.90;;;;;;;;;;4994327;28;20485;-58
2021/06/09 05:40:32;;;;;;;7.17;5.10;;;;;;;;;;4994316;28;20469;-58
2021/06/09 05:43:00;;;;;;;6.37;4.97;;;;;;;;;;4977165;28;20477;-58
2021/06/09 05:45:31;;;;;;;6.50;4.60;;;;;;;;;;4994263;28;20117;-58
2021/06/09 05:47:59;;;;;;;7.00;5.50;;;;;;;;;;4994152;28;20473;-58
2021/06/09 05:50:31;;;;;;;10.67;5.50;;;;;;;;;;4994343;28;20018;-58
2021/06/09 05:52:59;;;;;;;7.20;4.90;;;;;;;;;;4995915;28;20054;-58
2021/06/09 05:55:27;;;;;;;7.37;5.50;;;;;;;;;;4994418;28;20532;-58
2021/06/09 05:57:55;;;;;;;7.80;5.50;;;;;;;;;;4993930;28;20500;-58
2021/06/09 06:00:25;;;;;;;7.13;5.30;;;;;;;;;;4994037;28;20055;-58
2021/06/09 06:02:54;;;;;;;7.43;5.93;;;;;;;;;;4994319;28;20489;-58
2021/06/09 06:05:22;;;;;;;9.30;6.00;;;;;;;;;;4975224;28;20034;-58
2021/06/09 06:07:52;;;;;;;6.33;4.80;;;;;;;;;;4975910;28;20548;-58
2021/06/09 06:10:20;;;;;;;6.73;5.13;;;;;;;;;;4993877;28;20488;-58
2021/06/09 06:12:49;;;;;;;9.33;5.40;;;;;;;;;;4994092;28;20505;-58
2021/06/09 06:15:16;;;;;;;7.53;5.47;;;;;;;;;;4993290;28;20561;-58
2021/06/09 06:17:45;;;;;;;9.93;6.07;;;;;;;;;;4993714;28;20481;-58
2021/06/09 06:20:17;;;;;;;8.83;5.97;;;;;;;;;;4976544;28;20503;-58
2021/06/09 06:22:47;;;;;;;7.53;5.93;;;;;;;;;;4994069;28;20034;-58
2021/06/09 06:25:19;;;;;;;14.27;5.83;;;;;;;;;;4993695;28;20063;-58
2021/06/09 06:27:49;;;;;;;8.47;5.37;;;;;;;;;;4993822;28;20469;-58
2021/06/09 06:30:17;;;;;;;8.97;5.93;;;;;;;;;;4993600;28;20466;-58
2021/06/09 06:32:45;;;;;;;7.43;5.57;;;;;;;;;;4993253;28;20501;-58
2021/06/09 06:35:14;;;;;;;12.00;5.67;;;;;;;;;;4992648;28;20512;-57
2021/06/09 06:37:43;;;;;;;6.90;5.33;;;;;;;;;;4992846;28;20105;-58
2021/06/09 06:40:11;;;;;;;8.03;5.63;;;;;;;;;;4992555;28;20062;-58
2021/06/09 06:42:38;;;;;;;10.50;5.67;;;;;;;;;;4993451;28;20492;-58
2021/06/09 06:45:06;;;;;;;12.10;5.43;;;;;;;;;;4993334;28;20533;-58
2021/06/09 06:47:33;;;;;;;13.30;6.17;;;;;;;;;;4993436;28;20109;-58
2021/06/09 06:50:00;;;;;;;7.77;5.57;;;;;;;;;;4993632;28;20053;-57
2021/06/09 06:52:31;;;;;;;7.20;5.43;;;;;;;;;;4994419;28;20486;-59
2021/06/09 06:55:05;;;;;;;11.30;5.53;;;;;;;;;;4993376;28;20494;-58
2021/06/09 06:57:32;;;;;;;8.27;5.90;;;;;;;;;;4992320;28;20520;-58
2021/06/09 07:00:01;;;;;;;6.27;5.07;;;;;;;;;;4993240;28;20474;-58
2021/06/09 07:02:30;;;;;;;9.60;5.33;;;;;;;;;;4992289;28;20481;-58
2021/06/09 07:04:57;;;;;;;9.57;5.10;;;;;;;;;;4993402;28;20031;-58
2021/06/09 07:07:25;;;;;;;7.87;4.93;;;;;;;;;;4993106;28;20500;-58
2021/06/09 07:09:52;;;;;;;8.10;5.70;;;;;;;;;;4992492;28;20541;-58
2021/06/09 07:12:21;;;;;;;7.03;5.10;;;;;;;;;;4993069;28;20477;-58
2021/06/09 07:14:51;;;;;;;9.90;5.23;;;;;;;;;;4993181;28;20528;-58
2021/06/09 07:17:20;;;;;;;9.53;5.37;;;;;;;;;;4993450;28;20495;-57
2021/06/09 07:19:48;;;;;;;18.47;5.67;;;;;;;;;;4993094;28;20496;-58
2021/06/09 07:22:18;;;;;;;7.20;4.57;;;;;;;;;;4975837;28;20629;-58
2021/06/09 07:24:45;;;;;;;9.60;5.00;;;;;;;;;;4993112;28;20540;-58
2021/06/09 07:27:13;;;;;;;8.03;5.80;;;;;;;;;;4993240;28;20564;-58
2021/06/09 07:29:43;;;;;;;7.80;5.43;;;;;;;;;;4992176;28;20085;-58
2021/06/09 07:32:10;;;;;;;8.83;5.30;;;;;;;;;;4992905;28;20066;-57
2021/06/09 07:34:37;;;;;;;7.83;5.97;;;;;;;;;;4993181;28;20097;-57
2021/06/09 07:37:11;;;;;;;6.83;5.30;;;;;;;;;;4993268;28;20529;-59
2021/06/09 07:39:40;;;;;;;7.47;5.70;;;;;;;;;;4992699;28;20504;-58
2021/06/09 07:42:12;;;;;;;10.83;5.57;;;;;;;;;;4992736;28;20573;-57
2021/06/09 07:44:48;;;;;;;7.60;5.70;;;;;;;;;;4992985;28;20027;-58
2021/06/09 07:47:16;;;;;;;11.57;5.57;;;;;;;;;;4993156;28;20026;-58
2021/06/09 07:49:44;;;;;;;7.87;5.70;;;;;;;;;;4996272;28;20550;-58
2021/06/09 07:52:11;;;;;;;6.93;5.10;;;;;;;;;;4995398;28;20549;-58
2021/06/09 07:54:46;;;;;;;11.00;5.30;;;;;;;;;;4999969;28;20494;-58
2021/06/09 07:57:21;;;;;;;7.70;5.60;;;;;;;;;;4996341;28;20473;-58
2021/06/09 07:59:50;;;;;;;7.60;5.27;;;;;;;;;;4996349;28;20526;-58
2021/06/09 08:02:21;;;;;;;7.73;4.60;;;;;;;;;;4995500;28;20535;-58
2021/06/09 08:04:48;;;;;;;7.73;4.53;;;;;;;;;;4996362;28;20026;-58
2021/06/09 08:07:16;;;;;;;7.07;5.00;;;;;;;;;;4996077;28;20523;-58
2021/06/09 08:09:44;;;;;;;6.93;5.10;;;;;;;;;;4996218;28;20477;-58
2021/06/09 08:12:11;;;;;;;5.83;4.40;;;;;;;;;;4996015;28;20489;-58
2021/06/09 08:14:38;;;;;;;5.90;4.53;;;;;;;;;;4996144;28;20034;-58
2021/06/09 08:17:08;;;;;;;7.67;4.97;;;;;;;;;;4996111;28;20034;-58
2021/06/09 08:19:36;;;;;;;7.03;4.87;;;;;;;;;;4995477;28;20495;-58
2021/06/09 08:22:03;;;;;;;10.47;5.00;;;;;;;;;;4995106;28;20042;-58
2021/06/09 08:24:31;;;;;;;8.33;4.73;;;;;;;;;;4995918;28;20474;-57
2021/06/09 08:27:03;;;;;;;6.80;4.83;;;;;;;;;;4996049;28;20500;-57
2021/06/09 08:29:31;;;;;;;6.33;4.73;;;;;;;;;;4995000;28;20043;-57
2021/06/09 08:31:58;;;;;;;6.23;4.37;;;;;;;;;;4995567;28;20490;-58
2021/06/09 08:34:26;;;;;;;9.17;5.03;;;;;;;;;;4995852;28;20032;-57
2021/06/09 08:36:55;;;;;;;6.13;4.30;;;;;;;;;;4995675;28;20057;-58
2021/06/09 08:39:25;;;;;;;8.63;4.87;;;;;;;;;;4995605;28;20490;-58
2021/06/09 08:41:54;;;;;;;7.10;4.10;;;;;;;;;;4995196;28;20031;-58
2021/06/09 08:44:22;;;;;;;5.80;3.87;;;;;;;;;;4995533;28;20508;-56
2021/06/09 08:46:53;;;;;;;5.30;3.87;;;;;;;;;;4995624;28;20534;-57
2021/06/09 08:49:22;;;;;;;7.33;4.83;;;;;;;;;;4995730;28;20500;-57
2021/06/09 08:51:50;;;;;;;13.10;5.33;;;;;;;;;;4995342;28;20046;-56
2021/06/09 08:54:17;;;;;;;10.97;5.37;;;;;;;;;;4997183;28;20058;-57
2021/06/09 08:56:50;;;;;;;7.87;4.93;;;;;;;;;;4995205;28;20469;-58
2021/06/09 08:59:18;;;;;;;6.23;4.23;;;;;;;;;;4994754;28;20465;-58
2021/06/09 09:01:45;;;;;;;7.03;4.87;;;;;;;;;;4995035;28;20524;-57
2021/06/09 09:04:13;;;;;;;9.43;4.80;;;;;;;;;;4977222;28;20509;-58
2021/06/09 09:06:40;;;;;;;7.23;4.57;;;;;;;;;;4976551;28;20491;-58
2021/06/09 09:09:08;;;;;;;8.43;4.83;;;;;;;;;;4995043;28;20474;-58
2021/06/09 09:11:35;;;;;;;6.53;4.87;;;;;;;;;;4994817;28;20473;-58
2021/06/09 09:14:02;;;;;;;6.87;5.07;;;;;;;;;;4994853;28;20101;-58
2021/06/09 09:16:29;;;;;;;7.57;4.40;;;;;;;;;;4994952;28;20018;-58
2021/06/09 09:19:04;;;;;;;7.00;5.43;;;;;;;;;;4995088;28;20056;-58
2021/06/09 09:21:45;;;;;;;11.87;5.03;;;;;;;;;;4994899;28;20553;-58
2021/06/09 09:24:14;;;;;;;9.20;4.70;;;;;;;;;;4994842;28;20477;-58
2021/06/09 09:26:50;;;;;;;8.90;4.17;;;;;;;;;;4977165;28;20560;-58
2021/06/09 09:29:22;;;;;;;6.83;4.93;;;;;;;;;;4977392;28;20069;-58
2021/06/09 09:31:49;;;;;;;10.63;4.30;;;;;;;;;;4994586;28;20489;-58
2021/06/09 09:34:28;;;;;;;7.83;4.80;;;;;;;;;;4994594;28;20493;-58
2021/06/09 09:37:05;;;;;;;7.60;4.37;;;;;;;;;;4994575;28;20466;-58
2021/06/09 09:39:32;;;;;;;10.23;4.63;;;;;;;;;;4994459;28;20031;-58
2021/06/09 09:42:16;;;;;;;8.47;4.70;;;;;;;;;;4994386;28;20517;-58
2021/06/09 09:44:43;;;;;;;5.53;4.27;;;;;;;;;;4993630;28;20508;-58
2021/06/09 09:47:22;;;;;;;6.60;4.37;;;;;;;;;;4994340;28;20505;-58
2021/06/09 09:49:50;;;;;;;7.13;4.80;;;;;;;;;;4994590;28;20489;-58
2021/06/09 09:52:18;;;;;;;12.30;5.60;;;;;;;;;;4975957;28;20516;-58
2021/06/09 09:54:45;;;;;;;7.30;4.93;;;;;;;;;;4995885;28;20129;-58
2021/06/09 09:57:14;;;;;;;6.10;5.07;;;;;;;;;;4994080;28;20552;-58
2021/06/09 09:59:54;;;;;;;6.17;5.23;;;;;;;;;;4994101;28;20511;-58
2021/06/09 10:02:21;;;;;;;9.37;5.20;;;;;;;;;;4994327;28;20022;-58
2021/06/09 10:04:58;;;;;;;7.93;4.37;;;;;;;;;;4994087;28;20026;-57
2021/06/09 10:07:25;;;;;;;8.33;5.20;;;;;;;;;;4993858;28;20034;-57
2021/06/09 10:09:53;;;;;;;6.37;4.37;;;;;;;;;;4994058;28;20109;-58
2021/06/09 10:12:21;;;;;;;5.93;3.80;;;;;;;;;;4993723;28;20545;-58
2021/06/09 10:14:52;;;;;;;7.23;4.33;;;;;;;;;;4993820;28;20054;-58
2021/06/09 10:17:21;;;;;;;5.83;4.13;;;;;;;;;;4994057;28;20030;-58
2021/06/09 10:19:57;;;;;;;5.57;4.53;;;;;;;;;;4993795;28;20085;-58
2021/06/09 10:22:35;;;;;;;7.53;4.93;;;;;;;;;;4993831;28;20504;-58
2021/06/09 10:25:13;;;;;;;6.97;4.50;;;;;;;;;;4993701;28;20486;-58
2021/06/09 10:27:49;;;;;;;8.13;4.37;;;;;;;;;;4993570;28;20577;-58
2021/06/09 10:30:16;;;;;;;7.67;4.50;;;;;;;;;;4993660;28;20516;-58
2021/06/09 10:32:44;;;;;;;6.90;4.63;;;;;;;;;;4993399;28;20038;-58
2021/06/09 10:35:11;;;;;;;5.90;4.23;;;;;;;;;;4993458;28;20037;-58
2021/06/09 10:37:39;;;;;;;6.07;3.70;;;;;;;;;;4993438;28;20516;-58
2021/06/09 10:40:07;;;;;;;7.77;4.13;;;;;;;;;;4993466;28;20481;-58
2021/06/09 10:42:36;;;;;;;9.33;4.20;;;;;;;;;;4993331;28;20477;-58
2021/06/09 10:45:05;;;;;;;7.53;4.57;;;;;;;;;;4992349;28;20496;-58
2021/06/09 10:47:33;;;;;;;5.90;3.97;;;;;;;;;;4993371;28;20496;-58
2021/06/09 10:50:01;;;;;;;7.87;4.50;;;;;;;;;;4993379;28;20465;-58
2021/06/09 10:52:29;;;;;;;7.37;5.17;;;;;;;;;;4993228;28;20505;-58
2021/06/09 10:54:56;;;;;;;9.77;5.07;;;;;;;;;;4965474;28;20490;-58
2021/06/09 10:57:25;;;;;;;6.67;4.77;;;;;;;;;;4974130;28;20037;-58
2021/06/09 10:59:52;;;;;;;6.50;4.30;;;;;;;;;;4973949;28;20019;-58
2021/06/09 11:02:21;;;;;;;10.97;5.07;;;;;;;;;;4973889;28;20106;-57
2021/06/09 11:04:54;;;;;;;6.50;4.40;;;;;;;;;;4973891;28;20492;-58
2021/06/09 11:07:41;;;;;;;7.30;4.83;;;;;;;;;;4974004;28;20106;-58
2021/06/09 11:10:10;;;;;;;7.47;5.00;;;;;;;;;;4973705;28;20143;-58
2021/06/09 11:12:44;;;;;;;7.93;5.43;;;;;;;;;;4973788;28;20042;-58
2021/06/09 11:15:15;;;;;;;6.63;4.88;;;;;;;;;;4973905;28;20496;-58
2021/06/09 11:17:44;;;;;;;8.87;4.90;;;;;;;;;;4973638;28;20509;-58
2021/06/09 11:20:14;;;;;;;8.60;4.53;;;;;;;;;;4973789;28;20467;-58
2021/06/09 11:22:44;;;;;;;7.87;4.57;;;;;;;;;;4973982;28;20485;-58
2021/06/09 11:25:19;;;;;;;10.73;4.30;;;;;;;;;;4977450;28;20462;-58
2021/06/09 11:27:58;;;;;;;7.53;4.67;;;;;;;;;;4977402;28;20465;-58
2021/06/09 11:30:26;;;;;;;7.70;5.37;;;;;;;;;;4977328;28;20481;-58
2021/06/09 11:32:54;;;;;;;7.00;5.33;;;;;;;;;;4977319;28;20544;-58
2021/06/09 11:35:41;;;;;;;7.90;5.20;;;;;;;;;;4977399;28;20109;-58
2021/06/09 11:38:14;;;;;;;8.10;4.93;;;;;;;;;;4977491;28;20482;-58
2021/06/09 11:40:59;;;;;;;6.80;4.70;;;;;;;;;;4977435;28;20027;-58
2021/06/09 11:43:30;;;;;;;8.52;4.50;;;;;;;;;;4977117;28;20484;-58
2021/06/09 11:45:58;;;;;;;6.90;4.37;;;;;;;;;;4977311;28;20118;-58
2021/06/09 11:48:27;;;;;;;9.80;5.07;;;;;;;;;;4977131;28;20478;-58
2021/06/09 11:50:59;;;;;;;9.27;5.03;;;;;;;;;;4977346;28;20474;-58
2021/06/09 11:53:40;;;;;;;8.27;4.90;;;;;;;;;;4977001;28;20039;-58
2021/06/09 11:56:30;;;;;;;8.40;5.07;;;;;;;;;;4979243;28;20560;-58
2021/06/09 11:59:05;;;;;;;11.37;5.27;;;;;;;;;;4984547;28;20489;-58
2021/06/09 12:01:32;;;;;;;;;;;;;;;;;;4996799;28;20030;-58
2021/06/09 12:04:13;;;;;;;7.10;4.20;;;;;;;;;;4995218;28;19941;-58
2021/06/09 12:06:42;;;;;;;8.13;4.13;;;;;;;;;;4996226;28;20489;-58
2021/06/09 12:09:09;;;;;;;8.47;5.20;;;;;;;;;;4996403;28;20030;-57
2021/06/09 12:11:37;;;;;;;9.57;5.90;;;;;;;;;;4996086;28;20030;-58
2021/06/09 12:14:21;;;;;;;7.43;6.10;;;;;;;;;;4996099;28;20053;-58
2021/06/09 12:16:50;;;;;;;7.60;5.00;;;;;;;;;;4996373;28;20601;-58
2021/06/09 12:19:29;;;;;;;8.93;5.00;;;;;;;;;;4979130;28;20469;-58
2021/06/09 12:21:59;;;;;;;7.73;5.30;;;;;;;;;;4996245;28;20466;-58
2021/06/09 12:24:28;;;;;;;11.03;5.77;;;;;;;;;;4996334;28;20030;-58
2021/06/09 12:26:56;;;;;;;8.90;5.63;;;;;;;;;;4996065;28;20461;-58
2021/06/09 12:29:24;;;;;;;8.07;5.80;;;;;;;;;;4995884;28;20481;-58
2021/06/09 12:31:52;;;;;;;10.80;5.63;;;;;;;;;;4995585;28;20507;-58
2021/06/09 12:34:23;;;;;;;7.70;5.07;;;;;;;;;;4994931;28;20465;-58
2021/06/09 12:36:54;;;;;;;9.10;5.80;;;;;;;;;;4995559;28;20461;-58
2021/06/09 12:39:23;;;;;;;8.60;5.20;;;;;;;;;;4995979;28;20457;-58
2021/06/09 12:41:50;;;;;;;9.13;5.87;;;;;;;;;;4995684;28;20034;-58
2021/06/09 12:44:18;;;;;;;9.30;5.93;;;;;;;;;;4995741;28;20500;-58
2021/06/09 12:46:56;;;;;;;11.33;5.63;;;;;;;;;;4995533;28;20026;-58
2021/06/09 12:49:24;;;;;;;13.33;5.43;;;;;;;;;;4995538;28;20493;-58
2021/06/09 12:52:05;;;;;;;7.80;5.47;;;;;;;;;;4994606;28;20597;-58
2021/06/09 12:54:32;;;;;;;6.23;4.90;;;;;;;;;;4996977;28;20530;-58
2021/06/09 12:57:00;;;;;;;10.13;5.67;;;;;;;;;;4995446;28;20029;-58
2021/06/09 12:59:34;;;;;;;6.43;4.93;;;;;;;;;;4995180;28;20557;-58
2021/06/09 13:02:01;;;;;;;8.33;5.53;;;;;;;;;;4995256;28;20552;-58
2021/06/09 13:04:37;;;;;;;7.67;6.00;;;;;;;;;;4995061;28;20516;-58
2021/06/09 13:07:05;;;;;;;10.70;6.03;;;;;;;;;;4994210;28;20486;-58
2021/06/09 13:09:32;;;;;;;10.37;7.10;;;;;;;;;;4995081;28;20491;-58
2021/06/09 13:12:01;;;;;;;9.97;7.00;;;;;;;;;;4994956;28;20510;-58
2021/06/09 13:14:33;;;;;;;9.67;6.10;;;;;;;;;;4994948;28;20481;-58
2021/06/09 13:17:06;;;;;;;11.53;6.80;;;;;;;;;;4994877;28;20485;-58
2021/06/09 13:19:33;;;;;;;8.83;5.97;;;;;;;;;;4977631;28;20022;-58
2021/06/09 13:22:02;;;;;;;14.43;6.63;;;;;;;;;;4995102;28;20482;-58
2021/06/09 13:24:37;;;;;;;8.00;5.80;;;;;;;;;;4994928;28;20057;-58
2021/06/09 13:27:09;;;;;;;7.37;5.47;;;;;;;;;;4994939;28;20461;-58
2021/06/09 13:29:36;;;;;;;10.97;6.87;;;;;;;;;;4994799;28;20067;-58
2021/06/09 13:32:28;;;;;;;9.23;6.90;;;;;;;;;;4994546;28;20481;-58
2021/06/09 13:34:58;;;;;;;12.00;8.57;;;;;;;;;;4994596;28;20541;-57
2021/06/09 13:37:34;;;;;;;12.03;8.90;;;;;;;;;;4993577;28;20494;-58
2021/06/09 13:40:15;;;;;;;21.07;10.10;;;;;;;;;;4994435;28;20442;-58
2021/06/09 13:42:47;;;;;;;11.53;8.87;;;;;;;;;;4994287;28;20110;-58
2021/06/09 13:45:21;;;;;;;18.67;9.90;;;;;;;;;;4994254;28;20496;-58
2021/06/09 13:47:51;;;;;;;13.35;9.70;;;;;;;;;;4994196;28;20035;-57
2021/06/09 13:50:24;;;;;;;15.27;10.43;;;;;;;;;;4994301;28;20018;-58
2021/06/09 13:53:01;;;;;;;16.53;10.73;;;;;;;;;;4994086;28;20473;-58
2021/06/09 13:55:51;;;;;;;15.33;10.63;;;;;;;;;;4965856;28;20089;-59
2021/06/09 13:58:33;;;;;;;24.20;11.57;;;;;;;;;;4974688;28;20474;-58
2021/06/09 14:01:12;;;;;;;15.50;10.87;;;;;;;;;;4973035;28;20479;-58
2021/06/09 14:03:47;;;;;;;16.47;11.37;;;;;;;;;;4974711;28;20474;-58
2021/06/09 14:06:19;;;;;;;13.43;10.65;;;;;;;;;;4974187;28;20497;-58
2021/06/09 14:08:47;;;;;;;16.57;9.63;;;;;;;;;;4972303;28;20027;-58
2021/06/09 14:11:24;;;;;;;14.67;11.17;;;;;;;;;;4974819;28;20113;-58
2021/06/09 14:13:57;;;;;;;14.20;10.27;;;;;;;;;;4974558;28;20486;-58
2021/06/09 14:16:26;;;;;;;12.27;9.87;;;;;;;;;;4974526;28;20470;-58
2021/06/09 14:18:53;;;;;;;13.93;9.97;;;;;;;;;;4974534;28;20069;-58
2021/06/09 14:21:44;;;;;;;13.60;9.13;;;;;;;;;;4974339;28;20086;-58
2021/06/09 14:24:26;;;;;;;11.27;8.53;;;;;;;;;;4974065;28;20525;-58
2021/06/09 14:27:11;;;;;;;11.67;9.30;;;;;;;;;;4973106;28;20519;-58
2021/06/09 14:29:38;;;;;;;11.50;8.80;;;;;;;;;;4974153;28;20528;-58
2021/06/09 14:32:16;;;;;;;13.60;9.53;;;;;;;;;;4974087;28;20481;-58
2021/06/09 14:34:43;;;;;;;11.37;9.00;;;;;;;;;;4974389;28;20493;-58
2021/06/09 14:37:17;;;;;;;13.37;10.03;;;;;;;;;;4974407;28;20492;-59
2021/06/09 14:40:02;;;;;;;;;;;;;;;;;;;;;
2021/06/09 14:42:41;;;;;;;11.20;9.43;;;;;;;;;;4969821;28;20027;-59
2021/06/09 14:45:22;;;;;;;12.57;10.23;;;;;;;;;;4972528;28;20071;-59
2021/06/09 14:48:30;;;;;;;12.00;9.23;;;;;;;;;;4973974;28;20486;-59
2021/06/09 14:51:05;;;;;;;12.20;10.10;;;;;;;;;;4974003;28;20509;-59
2021/06/09 14:53:32;;;;;;;13.85;9.48;;;;;;;;;;4973962;28;20094;-59
2021/06/09 14:55:59;;;;;;;11.87;9.67;;;;;;;;;;4992103;28;20049;-58
2021/06/09 14:58:27;;;;;;;12.90;9.77;;;;;;;;;;4992549;28;20541;-59
2021/06/09 15:00:54;;;;;;;11.13;9.77;;;;;;;;;;4993694;28;20022;-59